createdAt,value
2023-04-22T00:00:17.279Z,13.97
2023-04-22T00:02:47.395Z,17.43
2023-04-22T00:05:18.524Z,15.83
2023-04-22T00:07:48.589Z,13.93
2023-04-22T00:10:17.052Z,16.83
2023-04-22T00:12:45.679Z,15.80
2023-04-22T00:15:14.068Z,15.27
2023-04-22T00:17:42.959Z,15.33
2023-04-22T00:20:13.829Z,13.57
2023-04-22T00:22:42.246Z,15.80
2023-04-22T00:25:10.763Z,14.83
2023-04-22T00:27:39.084Z,14.23
2023-04-22T00:30:08.493Z,13.60
2023-04-22T00:32:36.854Z,13.90
2023-04-22T00:35:05.196Z,14.80
2023-04-22T00:37:35.098Z,14.27
2023-04-22T00:40:03.962Z,13.93
2023-04-22T00:42:32.893Z,13.97
2023-04-22T00:45:02.190Z,15.17
2023-04-22T00:47:32.553Z,14.97
2023-04-22T00:50:02.798Z,13.97
2023-04-22T00:52:31.266Z,16.37
2023-04-22T00:55:02.252Z,14.07
2023-04-22T00:57:32.205Z,13.63
2023-04-22T01:00:01.081Z,14.10
2023-04-22T01:02:30.660Z,14.47
2023-04-22T01:04:58.972Z,13.37
2023-04-22T01:07:27.158Z,15.40
2023-04-22T01:09:55.169Z,12.57
2023-04-22T01:12:24.934Z,13.07
2023-04-22T01:14:53.325Z,12.17
2023-04-22T01:17:22.077Z,11.50
2023-04-22T01:19:50.464Z,11.83
2023-04-22T01:22:19.208Z,14.07
2023-04-22T01:24:48.965Z,12.03
2023-04-22T01:27:17.467Z,10.63
2023-04-22T01:29:45.707Z,12.83
2023-04-22T01:32:14.129Z,13.67
2023-04-22T01:34:42.685Z,13.20
2023-04-22T01:37:10.896Z,15.17
2023-04-22T01:39:39.521Z,16.37
2023-04-22T01:42:10.211Z,15.10
2023-04-22T01:44:38.347Z,12.73
2023-04-22T01:47:06.499Z,14.90
2023-04-22T01:49:35.320Z,13.73
2023-04-22T01:52:03.460Z,14.77
2023-04-22T01:54:31.607Z,13.13
2023-04-22T01:56:59.719Z,13.90
2023-04-22T01:59:29.431Z,13.20
2023-04-22T02:01:57.636Z,15.10
2023-04-22T02:04:25.806Z,15.20
2023-04-22T02:06:53.877Z,13.17
2023-04-22T02:09:22.214Z,12.73
2023-04-22T02:11:50.674Z,12.47
2023-04-22T02:14:19.094Z,11.60
2023-04-22T02:16:48.906Z,10.43
2023-04-22T02:19:17.310Z,10.90
2023-04-22T02:21:47.345Z,11.77
2023-04-22T02:24:15.683Z,10.40
2023-04-22T02:26:44.487Z,13.73
2023-04-22T02:29:12.716Z,11.03
2023-04-22T02:31:40.908Z,10.83
2023-04-22T02:34:10.946Z,10.13
2023-04-22T02:36:39.378Z,10.73
2023-04-22T02:39:07.896Z,10.50
2023-04-22T02:41:36.111Z,11.13
2023-04-22T02:44:04.444Z,10.27
2023-04-22T02:46:32.749Z,9.20
2023-04-22T02:49:01.117Z,12.43
2023-04-22T02:51:31.183Z,9.83
2023-04-22T02:54:00.321Z,10.23
2023-04-22T02:56:29.182Z,9.87
2023-04-22T02:58:57.931Z,10.00
2023-04-22T03:01:26.367Z,10.87
2023-04-22T03:03:55.465Z,9.30
2023-04-22T03:06:23.881Z,9.60
2023-04-22T03:08:53.899Z,10.60
2023-04-22T03:11:22.117Z,9.93
2023-04-22T03:13:50.255Z,10.70
2023-04-22T03:16:18.783Z,13.70
2023-04-22T03:18:47.133Z,11.20
2023-04-22T03:21:15.887Z,12.30
2023-04-22T03:23:44.305Z,13.40
2023-04-22T03:26:14.481Z,12.37
2023-04-22T03:28:42.614Z,15.27
2023-04-22T03:31:12.047Z,13.47
2023-04-22T03:33:40.930Z,11.33
2023-04-22T03:36:09.909Z,16.60
2023-04-22T03:38:38.273Z,13.67
2023-04-22T03:41:06.381Z,12.60
2023-04-22T03:43:36.383Z,12.23
2023-04-22T03:46:04.523Z,10.27
2023-04-22T03:48:35.818Z,8.47
2023-04-22T03:51:04.375Z,10.43
2023-04-22T03:53:32.571Z,10.13
2023-04-22T03:56:00.603Z,9.83
2023-04-22T03:58:28.750Z,8.63
2023-04-22T04:00:59.954Z,9.70
2023-04-22T04:03:30.432Z,11.07
2023-04-22T04:05:59.621Z,10.23
2023-04-22T04:08:28.380Z,11.37
2023-04-22T04:10:56.470Z,9.53
2023-04-22T04:13:24.949Z,10.47
2023-04-22T04:15:53.773Z,7.67
2023-04-22T04:18:25.092Z,8.33
2023-04-22T04:20:54.368Z,9.23
2023-04-22T04:23:23.554Z,9.50
2023-04-22T04:25:52.117Z,7.20
2023-04-22T04:28:20.740Z,8.07
2023-04-22T04:30:49.212Z,9.07
2023-04-22T04:33:17.941Z,9.10
2023-04-22T04:35:48.272Z,9.67
2023-04-22T04:38:16.836Z,9.63
2023-04-22T04:40:45.630Z,9.07
2023-04-22T04:43:14.698Z,7.27
2023-04-22T04:45:48.495Z,6.83
2023-04-22T04:48:20.092Z,8.80
2023-04-22T04:50:50.483Z,6.10
2023-04-22T04:53:18.482Z,8.23
2023-04-22T04:55:46.651Z,8.03
2023-04-22T04:58:14.833Z,7.03
2023-04-22T05:00:43.085Z,6.27
2023-04-22T05:03:11.207Z,5.37
2023-04-22T05:05:40.194Z,5.67
2023-04-22T05:08:10.038Z,6.47
2023-04-22T05:10:38.099Z,5.97
2023-04-22T05:13:07.154Z,5.80
2023-04-22T05:15:35.623Z,6.50
2023-04-22T05:18:03.873Z,7.27
2023-04-22T05:20:34.536Z,5.17
2023-04-22T05:23:04.326Z,6.83
2023-04-22T05:25:34.148Z,4.80
2023-04-22T05:28:02.269Z,5.00
2023-04-22T05:30:30.612Z,4.53
2023-04-22T05:32:58.959Z,3.63
2023-04-22T05:35:27.348Z,4.30
2023-04-22T05:37:55.353Z,3.73
2023-04-22T05:40:23.622Z,4.30
2023-04-22T05:42:53.157Z,7.33
2023-04-22T05:45:21.329Z,4.93
2023-04-22T05:47:49.383Z,5.67
2023-04-22T05:50:17.539Z,5.30
2023-04-22T05:52:45.622Z,4.90
2023-04-22T05:55:13.825Z,4.83
2023-04-22T05:57:42.015Z,5.20
2023-04-22T06:00:13.229Z,5.60
2023-04-22T06:02:41.658Z,7.30
2023-04-22T06:05:11.036Z,5.37
2023-04-22T06:07:39.389Z,6.73
2023-04-22T06:10:08.995Z,4.83
2023-04-22T06:12:37.555Z,5.87
2023-04-22T06:15:06.808Z,6.10
2023-04-22T06:17:36.343Z,4.37
2023-04-22T06:20:05.061Z,4.67
2023-04-22T06:22:33.226Z,5.07
2023-04-22T06:25:01.685Z,4.33
2023-04-22T06:27:29.810Z,7.40
2023-04-22T06:29:58.226Z,6.20
2023-04-22T06:32:26.372Z,5.73
2023-04-22T06:34:56.144Z,5.20
2023-04-22T06:37:24.427Z,5.20
2023-04-22T06:39:52.470Z,4.63
2023-04-22T06:42:20.406Z,9.20
2023-04-22T06:44:48.891Z,9.80
2023-04-22T06:47:17.288Z,6.90
2023-04-22T06:49:45.350Z,5.10
2023-04-22T06:52:14.856Z,4.33
2023-04-22T06:54:42.889Z,6.43
2023-04-22T06:57:11.094Z,5.40
2023-04-22T06:59:40.172Z,4.77
2023-04-22T07:02:09.032Z,6.10
2023-04-22T07:04:37.615Z,5.27
2023-04-22T07:07:06.146Z,8.00
2023-04-22T07:09:36.359Z,5.27
2023-04-22T07:12:04.462Z,5.73
2023-04-22T07:14:34.665Z,5.77
2023-04-22T07:17:02.782Z,6.30
2023-04-22T07:19:33.307Z,4.10
2023-04-22T07:22:03.463Z,4.20
2023-04-22T07:24:31.756Z,5.57
2023-04-22T07:27:02.521Z,4.50
2023-04-22T07:29:31.044Z,7.27
2023-04-22T07:32:01.013Z,4.50
2023-04-22T07:34:29.070Z,5.27
2023-04-22T07:36:57.150Z,4.77
2023-04-22T07:39:25.777Z,4.83
2023-04-22T07:41:54.211Z,5.80
2023-04-22T07:44:23.900Z,5.97
2023-04-22T07:46:52.381Z,5.50
2023-04-22T07:49:20.412Z,6.87
2023-04-22T07:51:48.632Z,5.00
2023-04-22T07:54:17.835Z,6.13
2023-04-22T07:56:46.100Z,9.17
2023-04-22T07:59:14.458Z,5.93
2023-04-22T08:01:46.330Z,4.63
2023-04-22T08:04:14.751Z,5.67
2023-04-22T08:06:43.958Z,4.93
2023-04-22T08:09:12.231Z,4.97
2023-04-22T08:11:40.636Z,6.80
2023-04-22T08:14:08.893Z,4.00
2023-04-22T08:16:37.133Z,6.67
2023-04-22T08:19:06.899Z,4.33
2023-04-22T08:21:37.284Z,5.47
2023-04-22T08:24:05.641Z,4.47
2023-04-22T08:26:34.440Z,4.50
2023-04-22T08:29:03.369Z,4.77
2023-04-22T08:31:31.462Z,7.13
2023-04-22T08:33:59.560Z,6.37
2023-04-22T08:36:30.014Z,5.37
2023-04-22T08:38:58.167Z,6.03
2023-04-22T08:41:27.945Z,4.53
2023-04-22T08:43:57.286Z,6.53
2023-04-22T08:46:27.155Z,6.30
2023-04-22T08:48:57.196Z,4.33
2023-04-22T08:51:25.774Z,5.97
2023-04-22T08:53:55.432Z,4.10
2023-04-22T08:56:23.906Z,5.80
2023-04-22T08:58:53.152Z,4.87
2023-04-22T09:01:21.775Z,4.70
2023-04-22T09:03:51.206Z,4.83
2023-04-22T09:06:22.638Z,5.27
2023-04-22T09:08:51.528Z,4.07
2023-04-22T09:11:21.319Z,5.27
2023-04-22T09:13:51.078Z,5.70
2023-04-22T09:16:19.586Z,5.43
2023-04-22T09:18:47.967Z,4.57
2023-04-22T09:21:16.356Z,4.23
2023-04-22T09:23:50.658Z,4.67
2023-04-22T09:26:23.667Z,4.93
2023-04-22T09:28:53.574Z,3.43
2023-04-22T09:31:23.400Z,5.30
2023-04-22T09:33:55.678Z,3.93
2023-04-22T09:36:27.443Z,4.83
2023-04-22T09:38:57.674Z,4.67
2023-04-22T09:41:32.193Z,3.27
2023-04-22T09:44:03.157Z,6.00
2023-04-22T09:46:33.868Z,5.23
2023-04-22T09:49:04.187Z,3.47
2023-04-22T09:51:33.060Z,3.80
2023-04-22T09:54:04.401Z,4.50
2023-04-22T09:56:44.944Z,4.40
2023-04-22T09:59:13.161Z,3.13
2023-04-22T10:01:43.995Z,3.63
2023-04-22T10:04:16.444Z,4.43
2023-04-22T10:06:44.628Z,5.07
2023-04-22T10:09:13.573Z,4.97
2023-04-22T10:11:43.519Z,4.20
2023-04-22T10:14:14.185Z,6.07
2023-04-22T10:16:44.633Z,5.17
2023-04-22T10:19:17.973Z,5.13
2023-04-22T10:21:49.783Z,7.20
2023-04-22T10:24:19.235Z,4.57
2023-04-22T10:27:01.903Z,3.77
2023-04-22T10:29:38.828Z,5.23
2023-04-22T10:32:26.255Z,4.50
2023-04-22T10:35:13.678Z,4.80
2023-04-22T10:37:46.495Z,3.50
2023-04-22T10:40:17.709Z,3.57
2023-04-22T10:42:52.474Z,3.50
2023-04-22T10:45:25.360Z,4.50
2023-04-22T10:47:53.822Z,3.80
2023-04-22T10:50:26.733Z,3.50
2023-04-22T10:52:59.817Z,4.77
2023-04-22T10:55:52.526Z,4.40
2023-04-22T10:58:24.666Z,3.97
2023-04-22T11:01:00.308Z,3.77
2023-04-22T11:03:31.066Z,5.17
2023-04-22T11:06:16.470Z,4.50
2023-04-22T11:08:51.000Z,3.50
2023-04-22T11:11:19.979Z,3.10
2023-04-22T11:13:52.067Z,3.70
2023-04-22T11:16:24.116Z,6.10
2023-04-22T11:18:52.541Z,3.47
2023-04-22T11:21:22.732Z,2.90
2023-04-22T11:23:54.614Z,3.10
2023-04-22T11:26:35.812Z,2.83
2023-04-22T11:29:05.586Z,2.50
2023-04-22T11:31:37.262Z,2.92
2023-04-22T11:34:05.841Z,2.40
2023-04-22T11:36:34.177Z,5.43
2023-04-22T11:39:02.767Z,4.20
2023-04-22T11:41:31.693Z,2.23
2023-04-22T11:44:01.917Z,3.40
2023-04-22T11:46:38.588Z,2.77
2023-04-22T11:49:15.177Z,3.97
2023-04-22T11:51:56.928Z,3.65
2023-04-22T11:54:36.272Z,4.40
2023-04-22T11:57:06.549Z,2.95
2023-04-22T11:59:34.734Z,2.40
2023-04-22T12:02:08.576Z,3.50
2023-04-22T12:04:41.031Z,3.13
2023-04-22T12:07:09.465Z,2.40
2023-04-22T12:09:38.043Z,2.65
2023-04-22T12:12:07.996Z,3.25
2023-04-22T12:14:37.503Z,4.18
2023-04-22T12:17:10.839Z,4.22
2023-04-22T12:19:41.310Z,4.40
2023-04-22T12:22:09.876Z,3.13
2023-04-22T12:24:38.380Z,3.25
2023-04-22T12:27:14.517Z,2.97
2023-04-22T12:29:53.090Z,3.03
2023-04-22T12:32:24.902Z,5.82
2023-04-22T12:34:53.441Z,5.60
2023-04-22T12:37:21.806Z,4.68
2023-04-22T12:39:51.675Z,5.75
2023-04-22T12:42:20.166Z,3.67
2023-04-22T12:44:48.507Z,3.72
2023-04-22T12:47:18.284Z,3.72
2023-04-22T12:49:48.016Z,3.40
2023-04-22T12:52:17.929Z,4.85
2023-04-22T12:54:46.025Z,6.32
2023-04-22T12:57:15.439Z,5.05
2023-04-22T12:59:45.102Z,4.40
2023-04-22T13:02:13.253Z,2.42
2023-04-22T13:04:41.961Z,4.28
2023-04-22T13:07:12.591Z,4.10
2023-04-22T13:09:41.246Z,3.00
2023-04-22T13:12:10.346Z,4.05
2023-04-22T13:14:38.959Z,3.75
2023-04-22T13:17:07.577Z,2.65
2023-04-22T13:19:36.168Z,2.70
2023-04-22T13:22:05.034Z,5.95
2023-04-22T13:24:34.680Z,5.72
2023-04-22T13:27:02.956Z,5.03
2023-04-22T13:29:31.643Z,6.40
2023-04-22T13:32:00.013Z,2.88
2023-04-22T13:34:28.456Z,3.35
2023-04-22T13:36:57.105Z,4.53
2023-04-22T13:39:26.242Z,2.60
2023-04-22T13:41:57.120Z,4.18
2023-04-22T13:44:25.553Z,3.55
2023-04-22T13:46:53.984Z,5.47
2023-04-22T13:49:22.393Z,5.13
2023-04-22T13:51:51.164Z,5.95
2023-04-22T13:54:19.558Z,3.60
2023-04-22T13:56:48.801Z,2.85
2023-04-22T13:59:18.532Z,4.15
2023-04-22T14:01:48.203Z,9.07
2023-04-22T14:04:16.284Z,5.28
2023-04-22T14:06:44.663Z,4.32
2023-04-22T14:09:12.967Z,4.18
2023-04-22T14:11:41.231Z,5.17
2023-04-22T14:14:10.924Z,8.63
2023-04-22T14:16:40.594Z,5.83
2023-04-22T14:19:09.131Z,7.00
2023-04-22T14:21:37.634Z,3.57
2023-04-22T14:24:06.176Z,2.95
2023-04-22T14:26:34.651Z,2.92
2023-04-22T14:29:05.907Z,2.57
2023-04-22T14:31:34.985Z,5.27
2023-04-22T14:34:06.718Z,3.17
2023-04-22T14:36:35.607Z,3.80
2023-04-22T14:39:04.013Z,5.35
2023-04-22T14:41:32.432Z,6.13
2023-04-22T14:44:00.900Z,5.93
2023-04-22T14:46:30.171Z,3.20
2023-04-22T14:48:58.307Z,3.73
2023-04-22T14:51:30.201Z,6.87
2023-04-22T14:53:58.480Z,2.70
2023-04-22T14:56:26.943Z,3.73
2023-04-22T14:58:55.266Z,5.20
2023-04-22T15:01:23.634Z,4.47
2023-04-22T15:03:52.445Z,2.80
2023-04-22T15:06:21.255Z,4.00
2023-04-22T15:08:51.898Z,5.70
2023-04-22T15:11:20.412Z,5.10
2023-04-22T15:13:49.005Z,3.30
2023-04-22T15:16:17.563Z,2.40
2023-04-22T15:18:46.057Z,3.73
2023-04-22T15:21:15.891Z,2.87
2023-04-22T15:23:44.334Z,4.77
2023-04-22T15:26:15.237Z,5.67
2023-04-22T15:28:43.761Z,5.83
2023-04-22T15:31:11.917Z,4.40
2023-04-22T15:33:40.567Z,4.93
2023-04-22T15:36:09.840Z,3.00
2023-04-22T15:38:40.151Z,2.53
2023-04-22T15:41:08.534Z,5.77
2023-04-22T15:43:38.349Z,3.50
2023-04-22T15:46:08.644Z,3.43
2023-04-22T15:48:37.073Z,2.47
2023-04-22T15:51:05.701Z,7.30
2023-04-22T15:53:33.879Z,4.10
2023-04-22T15:56:02.895Z,2.70
2023-04-22T15:58:34.558Z,4.00
2023-04-22T16:01:15.308Z,4.60
2023-04-22T16:03:47.000Z,3.03
2023-04-22T16:06:16.723Z,3.73
2023-04-22T16:08:46.126Z,2.97
2023-04-22T16:11:15.886Z,3.50
2023-04-22T16:13:44.482Z,3.70
2023-04-22T16:16:14.374Z,3.93
2023-04-22T16:18:44.218Z,2.57
2023-04-22T16:21:12.758Z,3.43
2023-04-22T16:23:41.539Z,3.23
2023-04-22T16:26:11.337Z,4.07
2023-04-22T16:28:39.786Z,3.67
2023-04-22T16:31:10.741Z,2.60
2023-04-22T16:33:41.842Z,2.70
2023-04-22T16:36:11.803Z,2.00
2023-04-22T16:38:40.605Z,3.67
2023-04-22T16:41:11.540Z,3.57
2023-04-22T16:43:41.179Z,3.97
2023-04-22T16:46:09.651Z,3.97
2023-04-22T16:48:39.639Z,3.77
2023-04-22T16:51:07.931Z,4.23
2023-04-22T16:53:37.097Z,3.83
2023-04-22T16:56:05.938Z,4.20
2023-04-22T16:58:34.498Z,5.40
2023-04-22T17:01:03.376Z,3.10
2023-04-22T17:03:31.796Z,5.73
2023-04-22T17:06:02.052Z,5.00
2023-04-22T17:08:31.300Z,5.93
2023-04-22T17:10:59.592Z,2.63
2023-04-22T17:13:29.062Z,3.20
2023-04-22T17:15:57.357Z,3.17
2023-04-22T17:18:26.320Z,2.30
2023-04-22T17:20:56.281Z,2.60
2023-04-22T17:23:27.127Z,5.43
2023-04-22T17:25:55.136Z,3.33
2023-04-22T17:28:23.560Z,4.40
2023-04-22T17:30:52.201Z,3.07
2023-04-22T17:33:20.964Z,2.40
2023-04-22T17:35:50.772Z,3.97
2023-04-22T17:38:19.843Z,4.50
2023-04-22T17:40:49.377Z,5.00
2023-04-22T17:43:17.477Z,4.23
2023-04-22T17:45:45.709Z,4.00
2023-04-22T17:48:14.268Z,4.80
2023-04-22T17:50:42.677Z,5.63
2023-04-22T17:53:11.154Z,2.70
2023-04-22T17:55:39.557Z,4.33
2023-04-22T17:58:09.452Z,2.13
2023-04-22T18:00:38.875Z,4.93
2023-04-22T18:03:07.911Z,4.70
2023-04-22T18:05:43.300Z,2.97
2023-04-22T18:08:12.084Z,3.53
2023-04-22T18:10:40.850Z,2.23
2023-04-22T18:13:10.638Z,6.40
2023-04-22T18:15:38.878Z,4.37
2023-04-22T18:18:09.657Z,2.93
2023-04-22T18:20:37.967Z,2.80
2023-04-22T18:23:06.145Z,4.40
2023-04-22T18:25:34.550Z,5.70
2023-04-22T18:28:02.862Z,6.23
2023-04-22T18:30:32.926Z,2.30
2023-04-22T18:33:01.211Z,3.60
2023-04-22T18:35:30.717Z,4.07
2023-04-22T18:37:58.966Z,3.73
2023-04-22T18:40:28.427Z,2.53
2023-04-22T18:42:56.723Z,4.17
2023-04-22T18:45:25.405Z,3.93
2023-04-22T18:47:55.018Z,3.93
2023-04-22T18:50:23.493Z,3.17
2023-04-22T18:52:51.813Z,3.07
2023-04-22T18:55:20.335Z,4.90
2023-04-22T18:57:48.732Z,2.07
2023-04-22T19:00:17.918Z,2.97
2023-04-22T19:02:46.310Z,3.90
2023-04-22T19:05:18.212Z,3.17
2023-04-22T19:07:47.145Z,7.07
2023-04-22T19:10:15.375Z,4.37
2023-04-22T19:12:43.393Z,4.80
2023-04-22T19:15:13.198Z,4.33
2023-04-22T19:17:42.742Z,3.87
2023-04-22T19:20:12.076Z,6.13
2023-04-22T19:22:41.749Z,2.37
2023-04-22T19:25:10.597Z,3.37
2023-04-22T19:27:39.021Z,5.10
2023-04-22T19:30:12.217Z,4.17
2023-04-22T19:32:42.500Z,4.00
2023-04-22T19:35:16.405Z,3.97
2023-04-22T19:37:47.331Z,3.20
2023-04-22T19:40:18.592Z,3.67
2023-04-22T19:42:47.819Z,5.23
2023-04-22T19:45:16.034Z,6.60
2023-04-22T19:47:44.600Z,6.00
2023-04-22T19:50:13.653Z,4.77
2023-04-22T19:52:44.040Z,5.93
2023-04-22T19:55:15.167Z,6.20
2023-04-22T19:57:43.735Z,5.60
2023-04-22T20:00:15.412Z,6.20
2023-04-22T20:02:44.188Z,4.30
2023-04-22T20:05:13.258Z,2.67
2023-04-22T20:07:44.759Z,6.13
2023-04-22T20:10:16.031Z,4.43
2023-04-22T20:12:45.620Z,5.40
2023-04-22T20:15:14.605Z,2.87
2023-04-22T20:17:43.974Z,3.13
2023-04-22T20:20:15.724Z,3.60
2023-04-22T20:22:45.160Z,3.60
2023-04-22T20:25:17.386Z,3.87
2023-04-22T20:27:46.151Z,4.17
2023-04-22T20:30:15.182Z,3.33
2023-04-22T20:32:43.877Z,3.00
2023-04-22T20:35:15.259Z,6.23
2023-04-22T20:37:44.050Z,3.80
2023-04-22T20:40:15.332Z,3.20
2023-04-22T20:42:45.042Z,4.10
2023-04-22T20:45:16.008Z,3.27
2023-04-22T20:47:44.591Z,3.80
2023-04-22T20:50:14.120Z,3.50
2023-04-22T20:52:42.617Z,4.77
2023-04-22T20:55:11.372Z,3.50
2023-04-22T20:57:39.925Z,5.87
2023-04-22T21:00:12.729Z,4.13
2023-04-22T21:02:41.924Z,2.93
2023-04-22T21:05:12.063Z,5.30
2023-04-22T21:07:40.975Z,4.70
2023-04-22T21:10:10.808Z,5.40
2023-04-22T21:12:39.569Z,3.80
2023-04-22T21:15:12.960Z,3.80
2023-04-22T21:17:44.714Z,3.30
2023-04-22T21:20:13.439Z,4.73
2023-04-22T21:22:44.716Z,3.90
2023-04-22T21:25:21.929Z,4.03
2023-04-22T21:27:50.941Z,4.63
2023-04-22T21:30:22.470Z,4.27
2023-04-22T21:32:50.644Z,3.87
2023-04-22T21:35:18.801Z,5.80
2023-04-22T21:37:47.527Z,5.10
2023-04-22T21:40:15.666Z,6.40
2023-04-22T21:42:44.293Z,5.67
2023-04-22T21:45:13.252Z,3.43
2023-04-22T21:47:42.798Z,4.83
2023-04-22T21:50:11.564Z,3.30
2023-04-22T21:52:39.744Z,4.13
2023-04-22T21:55:09.318Z,4.27
2023-04-22T21:57:37.572Z,3.33
2023-04-22T22:00:08.871Z,4.53
2023-04-22T22:02:37.028Z,3.93
2023-04-22T22:05:08.226Z,3.53
2023-04-22T22:07:38.829Z,3.37
2023-04-22T22:10:08.428Z,4.17
2023-04-22T22:12:36.937Z,3.30
2023-04-22T22:15:06.660Z,6.27
2023-04-22T22:17:35.251Z,4.27
2023-04-22T22:20:04.397Z,2.93
2023-04-22T22:22:34.269Z,5.27
2023-04-22T22:25:02.431Z,3.87
2023-04-22T22:27:30.736Z,4.37
2023-04-22T22:29:58.796Z,4.23
2023-04-22T22:32:27.002Z,5.97
2023-04-22T22:34:55.588Z,3.37
2023-04-22T22:37:23.943Z,3.67
2023-04-22T22:39:54.254Z,4.10
2023-04-22T22:42:22.643Z,5.50
2023-04-22T22:44:50.823Z,4.70
2023-04-22T22:47:19.351Z,3.60
2023-04-22T22:49:47.449Z,4.60
2023-04-22T22:52:15.607Z,4.10
2023-04-22T22:54:44.121Z,4.50
2023-04-22T22:57:13.916Z,5.03
2023-04-22T22:59:42.089Z,4.30
2023-04-22T23:02:10.481Z,5.00
2023-04-22T23:04:39.711Z,5.13
2023-04-22T23:07:08.335Z,10.13
2023-04-22T23:09:36.478Z,5.73
2023-04-22T23:12:04.815Z,7.27
2023-04-22T23:14:36.635Z,6.13
2023-04-22T23:17:04.941Z,5.30
2023-04-22T23:19:34.608Z,5.30
2023-04-22T23:22:05.386Z,6.87
2023-04-22T23:24:36.382Z,6.00
2023-04-22T23:27:05.641Z,7.13
2023-04-22T23:29:37.139Z,6.83
2023-04-22T23:32:06.507Z,6.23
2023-04-22T23:34:35.592Z,8.20
2023-04-22T23:37:06.708Z,6.77
2023-04-22T23:39:34.978Z,7.77
2023-04-22T23:42:03.182Z,8.43
2023-04-22T23:44:31.305Z,9.57
2023-04-22T23:47:00.976Z,9.07
2023-04-22T23:49:29.741Z,7.53
2023-04-22T23:51:58.221Z,8.20
2023-04-22T23:54:26.925Z,9.43
2023-04-22T23:56:56.125Z,10.60
2023-04-22T23:59:24.847Z,9.43
